sensor_id;sensor_type;location;lat;lon;timestamp;pressure;altitude;pressure_sealevel;temperature;humidity
31346;BME280;21711;49.708;18.568;2023-01-19T00:01:40;95873.06;;;1.30;100.00
31346;BME280;21711;49.708;18.568;2023-01-19T00:04:07;95869.16;;;1.33;100.00
31346;BME280;21711;49.708;18.568;2023-01-19T00:06:34;95871.28;;;1.36;100.00
31346;BME280;21711;49.708;18.568;2023-01-19T00:09:02;95877.78;;;1.33;100.00
31346;BME280;21711;49.708;18.568;2023-01-19T00:11:29;95883.50;;;1.35;100.00
31346;BME280;21711;49.708;18.568;2023-01-19T00:13:56;95888.19;;;1.33;100.00
31346;BME280;21711;49.708;18.568;2023-01-19T00:16:24;95883.47;;;1.30;100.00
31346;BME280;21711;49.708;18.568;2023-01-19T00:18:52;95890.03;;;1.38;100.00
31346;BME280;21711;49.708;18.568;2023-01-19T00:21:20;95888.47;;;1.37;100.00
31346;BME280;21711;49.708;18.568;2023-01-19T00:23:50;95891.56;;;1.34;100.00
31346;BME280;21711;49.708;18.568;2023-01-19T00:26:19;95875.09;;;1.28;100.00
31346;BME280;21711;49.708;18.568;2023-01-19T00:28:49;95873.78;;;1.25;100.00
31346;BME280;21711;49.708;18.568;2023-01-19T00:31:16;95874.91;;;1.35;100.00
31346;BME280;21711;49.708;18.568;2023-01-19T00:33:49;95874.50;;;1.48;100.00
31346;BME280;21711;49.708;18.568;2023-01-19T00:36:18;95877.91;;;1.49;100.00
31346;BME280;21711;49.708;18.568;2023-01-19T00:38:46;95879.94;;;1.47;100.00
31346;BME280;21711;49.708;18.568;2023-01-19T00:41:13;95879.47;;;1.50;100.00
31346;BME280;21711;49.708;18.568;2023-01-19T00:43:40;95882.41;;;1.58;100.00
31346;BME280;21711;49.708;18.568;2023-01-19T00:46:08;95872.00;;;1.64;100.00
31346;BME280;21711;49.708;18.568;2023-01-19T00:48:35;95873.59;;;1.65;100.00
31346;BME280;21711;49.708;18.568;2023-01-19T00:51:03;95879.31;;;1.62;100.00
31346;BME280;21711;49.708;18.568;2023-01-19T00:53:30;95887.03;;;1.51;100.00
31346;BME280;21711;49.708;18.568;2023-01-19T00:56:00;95887.03;;;1.51;100.00
31346;BME280;21711;49.708;18.568;2023-01-19T00:58:28;95881.88;;;1.56;100.00
31346;BME280;21711;49.708;18.568;2023-01-19T01:00:55;95885.81;;;1.59;100.00
31346;BME280;21711;49.708;18.568;2023-01-19T01:03:29;95887.13;;;1.62;100.00
31346;BME280;21711;49.708;18.568;2023-01-19T01:05:57;95901.78;;;1.73;100.00
31346;BME280;21711;49.708;18.568;2023-01-19T01:08:24;95897.34;;;1.68;100.00
31346;BME280;21711;49.708;18.568;2023-01-19T01:10:51;95893.50;;;1.76;100.00
31346;BME280;21711;49.708;18.568;2023-01-19T01:13:19;95882.22;;;1.70;100.00
31346;BME280;21711;49.708;18.568;2023-01-19T01:15:51;95890.94;;;1.87;100.00
31346;BME280;21711;49.708;18.568;2023-01-19T01:18:20;95885.22;;;1.84;100.00
31346;BME280;21711;49.708;18.568;2023-01-19T01:20:47;95880.53;;;1.87;100.00
31346;BME280;21711;49.708;18.568;2023-01-19T01:23:15;95868.81;;;1.89;100.00
31346;BME280;21711;49.708;18.568;2023-01-19T01:25:42;95865.44;;;1.89;100.00
31346;BME280;21711;49.708;18.568;2023-01-19T01:28:09;95865.41;;;1.83;100.00
31346;BME280;21711;49.708;18.568;2023-01-19T01:30:37;95862.22;;;1.76;100.00
31346;BME280;21711;49.708;18.568;2023-01-19T01:33:07;95865.78;;;1.65;100.00
31346;BME280;21711;49.708;18.568;2023-01-19T01:35:34;95862.97;;;1.72;100.00
31346;BME280;21711;49.708;18.568;2023-01-19T01:38:02;95861.69;;;1.74;100.00
31346;BME280;21711;49.708;18.568;2023-01-19T01:40:29;95850.88;;;1.60;100.00
31346;BME280;21711;49.708;18.568;2023-01-19T01:42:57;95855.22;;;1.49;100.00
31346;BME280;21711;49.708;18.568;2023-01-19T01:45:33;95868.03;;;1.56;100.00
31346;BME280;21711;49.708;18.568;2023-01-19T01:48:13;95874.28;;;1.55;100.00
31346;BME280;21711;49.708;18.568;2023-01-19T01:50:56;95879.06;;;1.63;100.00
31346;BME280;21711;49.708;18.568;2023-01-19T01:54:11;95875.22;;;1.71;100.00
31346;BME280;21711;49.708;18.568;2023-01-19T01:56:47;95871.81;;;1.70;100.00
31346;BME280;21711;49.708;18.568;2023-01-19T01:59:37;95881.53;;;1.80;100.00
31346;BME280;21711;49.708;18.568;2023-01-19T02:02:11;95883.09;;;1.81;100.00
31346;BME280;21711;49.708;18.568;2023-01-19T02:05:06;95885.75;;;1.87;100.00
31346;BME280;21711;49.708;18.568;2023-01-19T02:08:03;95880.59;;;1.97;100.00
31346;BME280;21711;49.708;18.568;2023-01-19T02:10:53;95887.16;;;2.00;100.00
31346;BME280;21711;49.708;18.568;2023-01-19T02:13:41;95894.41;;;1.92;100.00
31346;BME280;21711;49.708;18.568;2023-01-19T02:16:14;95897.03;;;1.97;100.00
31346;BME280;21711;49.708;18.568;2023-01-19T02:18:43;95896.78;;;1.99;100.00
31346;BME280;21711;49.708;18.568;2023-01-19T02:24:08;95910.34;;;2.01;100.00
31346;BME280;21711;49.708;18.568;2023-01-19T02:26:44;95903.75;;;1.88;100.00
31346;BME280;21711;49.708;18.568;2023-01-19T02:29:19;95910.34;;;2.01;100.00
31346;BME280;21711;49.708;18.568;2023-01-19T02:31:47;95907.88;;;2.17;100.00
31346;BME280;21711;49.708;18.568;2023-01-19T02:34:18;95909.22;;;2.25;100.00
31346;BME280;21711;49.708;18.568;2023-01-19T02:36:57;95911.56;;;2.26;100.00
31346;BME280;21711;49.708;18.568;2023-01-19T02:39:36;95914.91;;;2.21;100.00
31346;BME280;21711;49.708;18.568;2023-01-19T02:42:24;95911.50;;;2.16;100.00
31346;BME280;21711;49.708;18.568;2023-01-19T02:44:55;95913.63;;;2.24;100.00
31346;BME280;21711;49.708;18.568;2023-01-19T02:47:23;95908.75;;;2.33;100.00
31346;BME280;21711;49.708;18.568;2023-01-19T02:49:59;95910.59;;;2.38;100.00
31346;BME280;21711;49.708;18.568;2023-01-19T02:52:27;95909.81;;;2.42;100.00
31346;BME280;21711;49.708;18.568;2023-01-19T02:58:23;95913.22;;;2.43;100.00
31346;BME280;21711;49.708;18.568;2023-01-19T03:01:13;95906.94;;;2.39;100.00
31346;BME280;21711;49.708;18.568;2023-01-19T03:06:54;95914.44;;;1.92;100.00
31346;BME280;21711;49.708;18.568;2023-01-19T03:09:36;95911.28;;;1.84;100.00
31346;BME280;21711;49.708;18.568;2023-01-19T03:12:20;95918.63;;;1.60;100.00
31346;BME280;21711;49.708;18.568;2023-01-19T03:14:56;95924.06;;;1.53;100.00
31346;BME280;21711;49.708;18.568;2023-01-19T03:17:26;95929.31;;;1.58;100.00
31346;BME280;21711;49.708;18.568;2023-01-19T03:19:55;95931.22;;;1.68;100.00
31346;BME280;21711;49.708;18.568;2023-01-19T03:22:27;95931.31;;;1.79;100.00
31346;BME280;21711;49.708;18.568;2023-01-19T03:24:58;95937.59;;;1.83;100.00
31346;BME280;21711;49.708;18.568;2023-01-19T03:27:35;95928.22;;;1.82;100.00
31346;BME280;21711;49.708;18.568;2023-01-19T03:30:27;95926.50;;;1.65;100.00
31346;BME280;21711;49.708;18.568;2023-01-19T03:32:59;95922.88;;;1.66;100.00
31346;BME280;21711;49.708;18.568;2023-01-19T03:35:32;95933.16;;;1.78;100.00
31346;BME280;21711;49.708;18.568;2023-01-19T03:38:05;95932.06;;;1.74;100.00
31346;BME280;21711;49.708;18.568;2023-01-19T03:40:35;95922.97;;;1.77;100.00
31346;BME280;21711;49.708;18.568;2023-01-19T03:43:03;95928.97;;;1.82;100.00
31346;BME280;21711;49.708;18.568;2023-01-19T03:45:33;95936.56;;;1.84;100.00
31346;BME280;21711;49.708;18.568;2023-01-19T03:48:04;95941.53;;;1.86;100.00
31346;BME280;21711;49.708;18.568;2023-01-19T03:50:32;95951.41;;;1.78;100.00
31346;BME280;21711;49.708;18.568;2023-01-19T03:53:11;95950.34;;;1.79;100.00
31346;BME280;21711;49.708;18.568;2023-01-19T03:55:44;95940.63;;;1.69;100.00
31346;BME280;21711;49.708;18.568;2023-01-19T03:58:11;95936.97;;;1.70;100.00
31346;BME280;21711;49.708;18.568;2023-01-19T04:00:39;95934.47;;;1.53;100.00
31346;BME280;21711;49.708;18.568;2023-01-19T04:03:14;95947.03;;;1.56;100.00
31346;BME280;21711;49.708;18.568;2023-01-19T04:05:41;95945.78;;;1.64;100.00
31346;BME280;21711;49.708;18.568;2023-01-19T04:08:10;95949.31;;;1.80;100.00
31346;BME280;21711;49.708;18.568;2023-01-19T04:10:37;95952.19;;;1.84;100.00
31346;BME280;21711;49.708;18.568;2023-01-19T04:13:05;95955.69;;;1.95;100.00
31346;BME280;21711;49.708;18.568;2023-01-19T04:15:32;95958.56;;;1.99;100.00
31346;BME280;21711;49.708;18.568;2023-01-19T04:18:00;95963.31;;;2.02;100.00
31346;BME280;21711;49.708;18.568;2023-01-19T04:20:28;95965.47;;;2.10;100.00
31346;BME280;21711;49.708;18.568;2023-01-19T04:22:58;95960.78;;;2.17;100.00
31346;BME280;21711;49.708;18.568;2023-01-19T04:25:27;95965.97;;;2.12;100.00
31346;BME280;21711;49.708;18.568;2023-01-19T04:27:58;95969.19;;;2.19;100.00
31346;BME280;21711;49.708;18.568;2023-01-19T04:30:26;95963.16;;;2.19;100.00
31346;BME280;21711;49.708;18.568;2023-01-19T04:32:53;95978.09;;;2.23;100.00
31346;BME280;21711;49.708;18.568;2023-01-19T04:35:22;95977.78;;;2.20;100.00
31346;BME280;21711;49.708;18.568;2023-01-19T04:37:52;95974.28;;;2.09;100.00
31346;BME280;21711;49.708;18.568;2023-01-19T04:40:20;95973.06;;;2.17;100.00
31346;BME280;21711;49.708;18.568;2023-01-19T04:42:47;95969.94;;;2.20;100.00
31346;BME280;21711;49.708;18.568;2023-01-19T04:45:14;95979.28;;;2.10;100.00
31346;BME280;21711;49.708;18.568;2023-01-19T04:47:41;95979.31;;;2.16;100.00
31346;BME280;21711;49.708;18.568;2023-01-19T04:50:10;95977.41;;;2.06;100.00
31346;BME280;21711;49.708;18.568;2023-01-19T04:52:38;95990.94;;;1.70;100.00
31346;BME280;21711;49.708;18.568;2023-01-19T04:55:07;95983.88;;;1.70;100.00
31346;BME280;21711;49.708;18.568;2023-01-19T04:57:34;95987.81;;;1.73;100.00
31346;BME280;21711;49.708;18.568;2023-01-19T05:00:03;95991.84;;;1.58;100.00
31346;BME280;21711;49.708;18.568;2023-01-19T05:02:34;95987.56;;;1.47;100.00
31346;BME280;21711;49.708;18.568;2023-01-19T05:05:03;95985.63;;;1.37;100.00
31346;BME280;21711;49.708;18.568;2023-01-19T05:07:30;95974.06;;;1.28;100.00
31346;BME280;21711;49.708;18.568;2023-01-19T05:09:57;95972.69;;;1.20;100.00
31346;BME280;21711;49.708;18.568;2023-01-19T05:12:25;95971.34;;;1.40;100.00
31346;BME280;21711;49.708;18.568;2023-01-19T05:14:52;95958.06;;;1.41;100.00
31346;BME280;21711;49.708;18.568;2023-01-19T05:17:19;95953.28;;;1.55;100.00
31346;BME280;21711;49.708;18.568;2023-01-19T05:19:47;95959.56;;;1.60;100.00
31346;BME280;21711;49.708;18.568;2023-01-19T05:22:15;95951.63;;;1.49;100.00
31346;BME280;21711;49.708;18.568;2023-01-19T05:24:42;95955.78;;;1.45;100.00
31346;BME280;21711;49.708;18.568;2023-01-19T05:27:12;95955.31;;;1.53;100.00
31346;BME280;21711;49.708;18.568;2023-01-19T05:29:41;95948.94;;;1.39;100.00
31346;BME280;21711;49.708;18.568;2023-01-19T05:32:09;95955.47;;;1.41;100.00
31346;BME280;21711;49.708;18.568;2023-01-19T05:34:36;95954.00;;;1.51;100.00
31346;BME280;21711;49.708;18.568;2023-01-19T05:37:05;95950.31;;;1.74;100.00
31346;BME280;21711;49.708;18.568;2023-01-19T05:39:36;95953.53;;;1.87;100.00
31346;BME280;21711;49.708;18.568;2023-01-19T05:42:03;95950.63;;;1.83;100.00
31346;BME280;21711;49.708;18.568;2023-01-19T05:44:30;95964.00;;;1.92;100.00
31346;BME280;21711;49.708;18.568;2023-01-19T05:46:57;95967.69;;;1.96;100.00
31346;BME280;21711;49.708;18.568;2023-01-19T05:49:25;95957.25;;;1.96;100.00
31346;BME280;21711;49.708;18.568;2023-01-19T05:51:52;95947.22;;;1.82;100.00
31346;BME280;21711;49.708;18.568;2023-01-19T05:54:19;95964.50;;;1.89;100.00
31346;BME280;21711;49.708;18.568;2023-01-19T05:56:47;95964.06;;;1.69;100.00
31346;BME280;21711;49.708;18.568;2023-01-19T05:59:15;95964.47;;;1.56;100.00
31346;BME280;21711;49.708;18.568;2023-01-19T06:01:51;95956.03;;;1.43;100.00
31346;BME280;21711;49.708;18.568;2023-01-19T06:04:19;95970.31;;;1.41;100.00
31346;BME280;21711;49.708;18.568;2023-01-19T06:06:48;95968.19;;;1.38;100.00
31346;BME280;21711;49.708;18.568;2023-01-19T06:09:16;95971.13;;;1.19;100.00
31346;BME280;21711;49.708;18.568;2023-01-19T06:11:45;95972.47;;;1.22;100.00
31346;BME280;21711;49.708;18.568;2023-01-19T06:14:12;95971.50;;;1.05;100.00
31346;BME280;21711;49.708;18.568;2023-01-19T06:16:40;95966.22;;;1.00;100.00
31346;BME280;21711;49.708;18.568;2023-01-19T06:19:08;95974.66;;;1.08;100.00
31346;BME280;21711;49.708;18.568;2023-01-19T06:21:35;95976.00;;;1.10;100.00
31346;BME280;21711;49.708;18.568;2023-01-19T06:24:02;95973.00;;;1.01;100.00
31346;BME280;21711;49.708;18.568;2023-01-19T06:26:30;95987.41;;;1.09;100.00
31346;BME280;21711;49.708;18.568;2023-01-19T06:28:57;95991.28;;;1.07;100.00
31346;BME280;21711;49.708;18.568;2023-01-19T06:31:27;95997.47;;;1.00;100.00
31346;BME280;21711;49.708;18.568;2023-01-19T06:33:54;96008.34;;;0.97;100.00
31346;BME280;21711;49.708;18.568;2023-01-19T06:36:22;96007.94;;;1.05;100.00
31346;BME280;21711;49.708;18.568;2023-01-19T06:38:49;96015.69;;;1.00;100.00
31346;BME280;21711;49.708;18.568;2023-01-19T06:41:16;96016.16;;;0.97;100.00
31346;BME280;21711;49.708;18.568;2023-01-19T06:43:43;96018.00;;;1.19;100.00
31346;BME280;21711;49.708;18.568;2023-01-19T06:46:11;96026.00;;;1.35;100.00
31346;BME280;21711;49.708;18.568;2023-01-19T06:48:39;96036.28;;;1.47;100.00
31346;BME280;21711;49.708;18.568;2023-01-19T06:51:06;96036.91;;;1.54;100.00
31346;BME280;21711;49.708;18.568;2023-01-19T06:53:34;96054.44;;;1.64;100.00
31346;BME280;21711;49.708;18.568;2023-01-19T06:56:02;96055.84;;;1.72;100.00
31346;BME280;21711;49.708;18.568;2023-01-19T06:58:30;96059.25;;;1.50;100.00
31346;BME280;21711;49.708;18.568;2023-01-19T07:01:03;96067.75;;;1.62;100.00
31346;BME280;21711;49.708;18.568;2023-01-19T07:03:31;96073.78;;;1.68;100.00
31346;BME280;21711;49.708;18.568;2023-01-19T07:05:59;96088.28;;;1.58;100.00
31346;BME280;21711;49.708;18.568;2023-01-19T07:08:29;96096.88;;;1.59;100.00
31346;BME280;21711;49.708;18.568;2023-01-19T07:11:08;96097.09;;;1.80;100.00
31346;BME280;21711;49.708;18.568;2023-01-19T07:13:56;96104.97;;;1.85;100.00
31346;BME280;21711;49.708;18.568;2023-01-19T07:16:23;96103.97;;;1.64;100.00
31346;BME280;21711;49.708;18.568;2023-01-19T07:18:51;96094.81;;;1.61;100.00
31346;BME280;21711;49.708;18.568;2023-01-19T07:21:18;96096.66;;;1.61;100.00
31346;BME280;21711;49.708;18.568;2023-01-19T07:23:52;96101.25;;;1.31;100.00
31346;BME280;21711;49.708;18.568;2023-01-19T07:26:20;96098.09;;;1.51;100.00
31346;BME280;21711;49.708;18.568;2023-01-19T07:28:48;96094.47;;;1.52;100.00
31346;BME280;21711;49.708;18.568;2023-01-19T07:31:16;96085.78;;;1.47;100.00
31346;BME280;21711;49.708;18.568;2023-01-19T07:33:44;96095.56;;;1.56;100.00
31346;BME280;21711;49.708;18.568;2023-01-19T07:36:12;96124.88;;;1.47;100.00
31346;BME280;21711;49.708;18.568;2023-01-19T07:38:39;96111.78;;;1.41;100.00
31346;BME280;21711;49.708;18.568;2023-01-19T07:41:08;96093.78;;;1.40;100.00
31346;BME280;21711;49.708;18.568;2023-01-19T07:43:36;96106.09;;;1.44;100.00
31346;BME280;21711;49.708;18.568;2023-01-19T07:46:05;96114.22;;;1.48;100.00
31346;BME280;21711;49.708;18.568;2023-01-19T07:48:33;96118.16;;;1.28;100.00
31346;BME280;21711;49.708;18.568;2023-01-19T07:51:02;96116.16;;;1.36;100.00
31346;BME280;21711;49.708;18.568;2023-01-19T07:53:38;96122.56;;;1.28;100.00
31346;BME280;21711;49.708;18.568;2023-01-19T07:56:06;96119.72;;;1.29;100.00
31346;BME280;21711;49.708;18.568;2023-01-19T07:58:33;96132.97;;;1.45;100.00
31346;BME280;21711;49.708;18.568;2023-01-19T08:01:09;96131.78;;;1.36;100.00
31346;BME280;21711;49.708;18.568;2023-01-19T08:03:37;96137.13;;;1.46;100.00
31346;BME280;21711;49.708;18.568;2023-01-19T08:06:05;96143.84;;;1.42;100.00
31346;BME280;21711;49.708;18.568;2023-01-19T08:08:33;96138.84;;;1.18;100.00
31346;BME280;21711;49.708;18.568;2023-01-19T08:11:08;96137.25;;;1.34;100.00
31346;BME280;21711;49.708;18.568;2023-01-19T08:13:35;96125.19;;;1.50;100.00
31346;BME280;21711;49.708;18.568;2023-01-19T08:16:03;96125.69;;;1.47;100.00
31346;BME280;21711;49.708;18.568;2023-01-19T08:18:30;96126.03;;;1.56;100.00
31346;BME280;21711;49.708;18.568;2023-01-19T08:20:58;96119.53;;;1.58;100.00
31346;BME280;21711;49.708;18.568;2023-01-19T08:23:26;96130.59;;;1.43;100.00
31346;BME280;21711;49.708;18.568;2023-01-19T08:25:54;96139.38;;;1.20;100.00
31346;BME280;21711;49.708;18.568;2023-01-19T08:28:21;96123.19;;;1.35;100.00
31346;BME280;21711;49.708;18.568;2023-01-19T08:30:49;96117.16;;;1.35;100.00
31346;BME280;21711;49.708;18.568;2023-01-19T08:33:23;96123.53;;;1.44;100.00
31346;BME280;21711;49.708;18.568;2023-01-19T08:35:52;96132.97;;;1.45;100.00
31346;BME280;21711;49.708;18.568;2023-01-19T08:38:20;96153.59;;;1.52;100.00
31346;BME280;21711;49.708;18.568;2023-01-19T08:40:48;96151.38;;;1.38;100.00
31346;BME280;21711;49.708;18.568;2023-01-19T08:43:16;96162.03;;;1.37;100.00
31346;BME280;21711;49.708;18.568;2023-01-19T08:45:49;96160.69;;;1.34;100.00
31346;BME280;21711;49.708;18.568;2023-01-19T08:48:20;96150.94;;;1.47;100.00
31346;BME280;21711;49.708;18.568;2023-01-19T08:50:48;96155.59;;;1.44;100.00
31346;BME280;21711;49.708;18.568;2023-01-19T08:53:17;96165.56;;;1.48;100.00
31346;BME280;21711;49.708;18.568;2023-01-19T08:55:45;96180.13;;;1.26;100.00
31346;BME280;21711;49.708;18.568;2023-01-19T08:58:12;96179.78;;;1.23;100.00
31346;BME280;21711;49.708;18.568;2023-01-19T09:00:40;96189.00;;;1.30;100.00
31346;BME280;21711;49.708;18.568;2023-01-19T09:03:10;96175.06;;;1.37;100.00
31346;BME280;21711;49.708;18.568;2023-01-19T09:05:39;96172.84;;;1.28;100.00
31346;BME280;21711;49.708;18.568;2023-01-19T09:08:10;96163.16;;;1.07;100.00
31346;BME280;21711;49.708;18.568;2023-01-19T09:10:48;96159.44;;;1.20;100.00
31346;BME280;21711;49.708;18.568;2023-01-19T09:13:17;96163.06;;;1.01;100.00
31346;BME280;21711;49.708;18.568;2023-01-19T09:15:45;96181.38;;;1.07;100.00
31346;BME280;21711;49.708;18.568;2023-01-19T09:18:17;96183.91;;;1.18;100.00
31346;BME280;21711;49.708;18.568;2023-01-19T09:20:47;96191.16;;;1.16;100.00
31346;BME280;21711;49.708;18.568;2023-01-19T09:23:17;96177.69;;;1.20;100.00
31346;BME280;21711;49.708;18.568;2023-01-19T09:25:47;96176.34;;;1.17;100.00
31346;BME280;21711;49.708;18.568;2023-01-19T09:28:16;96173.28;;;1.42;100.00
31346;BME280;21711;49.708;18.568;2023-01-19T09:30:44;96170.25;;;1.11;100.00
31346;BME280;21711;49.708;18.568;2023-01-19T09:33:15;96164.03;;;1.12;100.00
31346;BME280;21711;49.708;18.568;2023-01-19T09:35:45;96152.41;;;1.20;100.00
31346;BME280;21711;49.708;18.568;2023-01-19T09:38:18;96156.50;;;1.16;100.00
31346;BME280;21711;49.708;18.568;2023-01-19T09:40:53;96156.59;;;1.21;100.00
31346;BME280;21711;49.708;18.568;2023-01-19T09:43:41;96156.03;;;1.19;100.00
31346;BME280;21711;49.708;18.568;2023-01-19T09:46:20;96165.13;;;0.99;100.00
31346;BME280;21711;49.708;18.568;2023-01-19T09:48:57;96173.78;;;0.71;100.00
31346;BME280;21711;49.708;18.568;2023-01-19T09:51:32;96173.03;;;0.70;100.00
31346;BME280;21711;49.708;18.568;2023-01-19T09:56:31;96175.41;;;0.72;100.00
31346;BME280;21711;49.708;18.568;2023-01-19T09:59:00;96174.91;;;0.92;100.00
31346;BME280;21711;49.708;18.568;2023-01-19T10:07:24;96160.84;;;0.59;100.00
31346;BME280;21711;49.708;18.568;2023-01-19T10:10:31;96158.50;;;0.57;100.00
31346;BME280;21711;49.708;18.568;2023-01-19T10:13:28;96157.56;;;0.63;100.00
31346;BME280;21711;49.708;18.568;2023-01-19T10:16:38;96144.09;;;0.67;100.00
31346;BME280;21711;49.708;18.568;2023-01-19T10:19:34;96143.81;;;0.68;100.00
31346;BME280;21711;49.708;18.568;2023-01-19T10:22:32;96135.16;;;0.80;100.00
31346;BME280;21711;49.708;18.568;2023-01-19T10:25:03;96135.00;;;0.86;100.00
31346;BME280;21711;49.708;18.568;2023-01-19T10:27:36;96125.53;;;0.80;100.00
31346;BME280;21711;49.708;18.568;2023-01-19T10:30:07;96127.03;;;0.76;100.00
31346;BME280;21711;49.708;18.568;2023-01-19T10:32:38;96133.91;;;0.99;100.00
31346;BME280;21711;49.708;18.568;2023-01-19T10:35:21;96131.84;;;1.01;100.00
31346;BME280;21711;49.708;18.568;2023-01-19T10:37:59;96137.47;;;0.93;100.00
31346;BME280;21711;49.708;18.568;2023-01-19T10:46:23;96132.88;;;1.00;100.00
31346;BME280;21711;49.708;18.568;2023-01-19T10:48:55;96136.59;;;0.87;100.00
31346;BME280;21711;49.708;18.568;2023-01-19T10:51:22;96127.81;;;0.76;100.00
31346;BME280;21711;49.708;18.568;2023-01-19T10:54:01;96126.53;;;1.13;100.00
31346;BME280;21711;49.708;18.568;2023-01-19T10:56:34;96128.28;;;1.08;100.00
31346;BME280;21711;49.708;18.568;2023-01-19T10:59:05;96143.97;;;1.13;100.00
31346;BME280;21711;49.708;18.568;2023-01-19T11:01:36;96137.28;;;1.17;100.00
31346;BME280;21711;49.708;18.568;2023-01-19T11:04:27;96141.44;;;1.18;100.00
31346;BME280;21711;49.708;18.568;2023-01-19T11:07:16;96146.44;;;1.20;100.00
31346;BME280;21711;49.708;18.568;2023-01-19T11:09:46;96142.94;;;1.14;100.00
31346;BME280;21711;49.708;18.568;2023-01-19T11:12:23;96146.13;;;0.99;100.00
31346;BME280;21711;49.708;18.568;2023-01-19T11:14:50;96142.16;;;1.13;100.00
31346;BME280;21711;49.708;18.568;2023-01-19T11:17:23;96136.88;;;1.08;100.00
31346;BME280;21711;49.708;18.568;2023-01-19T11:19:59;96124.66;;;1.09;100.00
31346;BME280;21711;49.708;18.568;2023-01-19T11:22:31;96118.34;;;1.04;100.00
31346;BME280;21711;49.708;18.568;2023-01-19T11:25:02;96129.38;;;0.95;100.00
31346;BME280;21711;49.708;18.568;2023-01-19T11:27:34;96134.13;;;0.98;100.00
31346;BME280;21711;49.708;18.568;2023-01-19T11:30:18;96129.06;;;1.08;100.00
31346;BME280;21711;49.708;18.568;2023-01-19T11:32:47;96129.50;;;1.00;100.00
31346;BME280;21711;49.708;18.568;2023-01-19T11:35:37;96135.78;;;1.04;100.00
31346;BME280;21711;49.708;18.568;2023-01-19T11:40:39;96133.59;;;0.96;100.00
31346;BME280;21711;49.708;18.568;2023-01-19T11:43:12;96134.13;;;0.98;100.00
31346;BME280;21711;49.708;18.568;2023-01-19T11:45:40;96144.16;;;1.06;100.00
31346;BME280;21711;49.708;18.568;2023-01-19T11:48:44;96137.81;;;1.19;100.00
31346;BME280;21711;49.708;18.568;2023-01-19T11:51:16;96120.16;;;1.04;100.00
31346;BME280;21711;49.708;18.568;2023-01-19T11:53:51;96131.38;;;1.04;100.00
31346;BME280;21711;49.708;18.568;2023-01-19T11:56:23;96131.50;;;1.15;100.00
31346;BME280;21711;49.708;18.568;2023-01-19T11:58:52;96128.44;;;1.18;100.00
31346;BME280;21711;49.708;18.568;2023-01-19T12:01:30;96128.25;;;1.25;100.00
31346;BME280;21711;49.708;18.568;2023-01-19T12:04:18;96133.41;;;1.20;100.00
31346;BME280;21711;49.708;18.568;2023-01-19T12:06:51;96128.50;;;1.23;100.00
31346;BME280;21711;49.708;18.568;2023-01-19T12:09:30;96126.34;;;1.20;100.00
31346;BME280;21711;49.708;18.568;2023-01-19T12:12:11;96116.81;;;1.26;100.00
31346;BME280;21711;49.708;18.568;2023-01-19T12:15:04;96120.97;;;1.27;100.00
31346;BME280;21711;49.708;18.568;2023-01-19T12:17:43;96126.94;;;1.22;100.00
31346;BME280;21711;49.708;18.568;2023-01-19T12:20:41;96125.09;;;1.23;100.00
31346;BME280;21711;49.708;18.568;2023-01-19T12:25:58;96126.31;;;1.37;100.00
31346;BME280;21711;49.708;18.568;2023-01-19T12:28:36;96133.91;;;1.39;100.00
31346;BME280;21711;49.708;18.568;2023-01-19T12:31:05;96134.31;;;1.30;100.00
31346;BME280;21711;49.708;18.568;2023-01-19T12:33:38;96144.22;;;1.11;100.00
31346;BME280;21711;49.708;18.568;2023-01-19T12:39:14;96146.09;;;1.33;100.00
31346;BME280;21711;49.708;18.568;2023-01-19T12:41:43;96149.09;;;1.25;100.00
31346;BME280;21711;49.708;18.568;2023-01-19T12:46:43;96154.06;;;1.26;100.00
31346;BME280;21711;49.708;18.568;2023-01-19T12:58:01;96148.38;;;1.29;100.00
31346;BME280;21711;49.708;18.568;2023-01-19T13:00:44;96162.09;;;1.42;100.00
31346;BME280;21711;49.708;18.568;2023-01-19T13:05:53;96168.66;;;1.27;100.00
31346;BME280;21711;49.708;18.568;2023-01-19T13:08:57;96164.56;;;1.31;100.00
31346;BME280;21711;49.708;18.568;2023-01-19T13:11:25;96167.00;;;1.38;100.00
31346;BME280;21711;49.708;18.568;2023-01-19T13:21:39;96182.56;;;1.73;100.00
31346;BME280;21711;49.708;18.568;2023-01-19T13:24:21;96175.78;;;1.54;100.00
31346;BME280;21711;49.708;18.568;2023-01-19T13:29:39;96195.97;;;1.42;100.00
31346;BME280;21711;49.708;18.568;2023-01-19T13:32:16;96197.06;;;1.46;100.00
31346;BME280;21711;49.708;18.568;2023-01-19T13:34:51;96196.66;;;1.37;100.00
31346;BME280;21711;49.708;18.568;2023-01-19T13:37:28;96194.16;;;1.25;100.00
31346;BME280;21711;49.708;18.568;2023-01-19T13:39:59;96202.84;;;1.31;100.00
31346;BME280;21711;49.708;18.568;2023-01-19T13:42:35;96204.41;;;1.32;100.00
31346;BME280;21711;49.708;18.568;2023-01-19T13:45:25;96202.56;;;1.50;100.00
31346;BME280;21711;49.708;18.568;2023-01-19T13:47:56;96205.75;;;1.35;100.00
31346;BME280;21711;49.708;18.568;2023-01-19T13:50:31;96210.41;;;1.33;100.00
31346;BME280;21711;49.708;18.568;2023-01-19T13:53:12;96211.53;;;1.20;100.00
31346;BME280;21711;49.708;18.568;2023-01-19T13:55:49;96210.28;;;1.22;100.00
31346;BME280;21711;49.708;18.568;2023-01-19T13:58:31;96205.31;;;1.03;100.00
31346;BME280;21711;49.708;18.568;2023-01-19T14:00:58;96215.72;;;0.86;100.00
31346;BME280;21711;49.708;18.568;2023-01-19T14:03:25;96208.38;;;1.00;100.00
31346;BME280;21711;49.708;18.568;2023-01-19T14:05:54;96213.19;;;1.09;100.00
31346;BME280;21711;49.708;18.568;2023-01-19T14:08:22;96218.72;;;1.12;100.00
31346;BME280;21711;49.708;18.568;2023-01-19T14:13:24;96224.28;;;0.87;100.00
31346;BME280;21711;49.708;18.568;2023-01-19T14:16:17;96228.59;;;0.93;100.00